sensor_id;sensor_type;location;lat;lon;timestamp;temperature;humidity
16980;DHT22;42288;52.182;21.156;2023-05-08T00:01:51;5.80;87.30
16980;DHT22;42288;52.182;21.156;2023-05-08T00:04:17;5.70;87.00
16980;DHT22;42288;52.182;21.156;2023-05-08T00:06:45;5.60;87.50
16980;DHT22;42288;52.182;21.156;2023-05-08T00:09:11;5.50;87.40
16980;DHT22;42288;52.182;21.156;2023-05-08T00:11:37;5.40;87.70
16980;DHT22;42288;52.182;21.156;2023-05-08T00:14:02;5.50;88.00
16980;DHT22;42288;52.182;21.156;2023-05-08T00:16:28;5.40;87.50
16980;DHT22;42288;52.182;21.156;2023-05-08T00:18:53;5.30;87.80
16980;DHT22;42288;52.182;21.156;2023-05-08T00:21:19;5.40;87.90
16980;DHT22;42288;52.182;21.156;2023-05-08T00:23:45;5.50;87.40
16980;DHT22;42288;52.182;21.156;2023-05-08T00:26:10;5.30;87.70
16980;DHT22;42288;52.182;21.156;2023-05-08T00:28:36;5.30;88.00
16980;DHT22;42288;52.182;21.156;2023-05-08T00:31:02;5.30;87.60
16980;DHT22;42288;52.182;21.156;2023-05-08T00:33:27;5.30;88.20
16980;DHT22;42288;52.182;21.156;2023-05-08T00:36:00;5.30;87.90
16980;DHT22;42288;52.182;21.156;2023-05-08T00:38:26;5.40;87.50
16980;DHT22;42288;52.182;21.156;2023-05-08T00:40:52;5.40;87.10
16980;DHT22;42288;52.182;21.156;2023-05-08T00:43:17;5.20;87.60
16980;DHT22;42288;52.182;21.156;2023-05-08T00:45:44;5.10;87.80
16980;DHT22;42288;52.182;21.156;2023-05-08T00:48:10;5.10;88.30
16980;DHT22;42288;52.182;21.156;2023-05-08T00:50:36;5.30;87.70
16980;DHT22;42288;52.182;21.156;2023-05-08T00:53:02;5.20;87.30
16980;DHT22;42288;52.182;21.156;2023-05-08T00:55:30;5.00;87.70
16980;DHT22;42288;52.182;21.156;2023-05-08T00:57:56;5.10;87.90
16980;DHT22;42288;52.182;21.156;2023-05-08T01:00:22;5.00;88.00
16980;DHT22;42288;52.182;21.156;2023-05-08T01:02:48;5.10;87.80
16980;DHT22;42288;52.182;21.156;2023-05-08T01:05:13;5.20;87.50
16980;DHT22;42288;52.182;21.156;2023-05-08T01:07:39;5.20;87.30
16980;DHT22;42288;52.182;21.156;2023-05-08T01:10:05;5.20;87.20
16980;DHT22;42288;52.182;21.156;2023-05-08T01:15:28;5.10;87.10
16980;DHT22;42288;52.182;21.156;2023-05-08T01:18:13;5.20;87.40
16980;DHT22;42288;52.182;21.156;2023-05-08T01:23:37;5.10;87.40
16980;DHT22;42288;52.182;21.156;2023-05-08T01:29:00;5.20;87.70
16980;DHT22;42288;52.182;21.156;2023-05-08T01:34:31;5.00;87.60
16980;DHT22;42288;52.182;21.156;2023-05-08T01:36:59;5.00;87.90
16980;DHT22;42288;52.182;21.156;2023-05-08T01:39:38;4.90;87.90
16980;DHT22;42288;52.182;21.156;2023-05-08T01:42:17;4.90;88.40
16980;DHT22;42288;52.182;21.156;2023-05-08T01:44:50;4.90;88.40
16980;DHT22;42288;52.182;21.156;2023-05-08T01:47:19;4.80;88.40
16980;DHT22;42288;52.182;21.156;2023-05-08T01:49:49;4.60;88.80
16980;DHT22;42288;52.182;21.156;2023-05-08T01:52:26;4.50;89.50
16980;DHT22;42288;52.182;21.156;2023-05-08T01:55:11;4.30;89.50
16980;DHT22;42288;52.182;21.156;2023-05-08T01:57:48;4.60;89.40
16980;DHT22;42288;52.182;21.156;2023-05-08T02:00:18;4.60;89.00
16980;DHT22;42288;52.182;21.156;2023-05-08T02:02:47;4.60;88.90
16980;DHT22;42288;52.182;21.156;2023-05-08T02:05:14;4.60;89.00
16980;DHT22;42288;52.182;21.156;2023-05-08T02:07:41;4.60;88.30
16980;DHT22;42288;52.182;21.156;2023-05-08T02:10:09;4.70;88.00
16980;DHT22;42288;52.182;21.156;2023-05-08T02:12:36;4.80;87.70
16980;DHT22;42288;52.182;21.156;2023-05-08T02:15:04;4.80;87.60
16980;DHT22;42288;52.182;21.156;2023-05-08T02:17:31;4.70;87.60
16980;DHT22;42288;52.182;21.156;2023-05-08T02:19:58;4.50;88.30
16980;DHT22;42288;52.182;21.156;2023-05-08T02:22:25;4.50;88.70
16980;DHT22;42288;52.182;21.156;2023-05-08T02:24:53;4.60;88.70
16980;DHT22;42288;52.182;21.156;2023-05-08T02:27:25;4.70;88.50
16980;DHT22;42288;52.182;21.156;2023-05-08T02:29:52;4.70;88.10
16980;DHT22;42288;52.182;21.156;2023-05-08T02:32:19;4.70;87.80
16980;DHT22;42288;52.182;21.156;2023-05-08T02:34:47;4.60;87.90
16980;DHT22;42288;52.182;21.156;2023-05-08T02:37:15;4.40;88.50
16980;DHT22;42288;52.182;21.156;2023-05-08T02:39:42;4.20;89.00
16980;DHT22;42288;52.182;21.156;2023-05-08T02:42:11;4.30;89.90
16980;DHT22;42288;52.182;21.156;2023-05-08T02:44:37;4.40;89.60
16980;DHT22;42288;52.182;21.156;2023-05-08T02:49:53;4.40;89.50
16980;DHT22;42288;52.182;21.156;2023-05-08T02:52:34;4.40;89.00
16980;DHT22;42288;52.182;21.156;2023-05-08T02:57:49;4.60;88.70
16980;DHT22;42288;52.182;21.156;2023-05-08T03:00:27;4.60;88.60
16980;DHT22;42288;52.182;21.156;2023-05-08T03:03:10;4.60;88.20
16980;DHT22;42288;52.182;21.156;2023-05-08T03:05:38;4.30;89.20
16980;DHT22;42288;52.182;21.156;2023-05-08T03:08:19;4.40;88.50
16980;DHT22;42288;52.182;21.156;2023-05-08T03:10:50;4.50;88.20
16980;DHT22;42288;52.182;21.156;2023-05-08T03:13:18;4.40;87.90
16980;DHT22;42288;52.182;21.156;2023-05-08T03:15:51;4.70;88.00
16980;DHT22;42288;52.182;21.156;2023-05-08T03:18:22;4.60;87.50
16980;DHT22;42288;52.182;21.156;2023-05-08T03:20:51;4.70;87.40
16980;DHT22;42288;52.182;21.156;2023-05-08T03:23:20;4.70;87.40
16980;DHT22;42288;52.182;21.156;2023-05-08T03:25:46;4.70;87.30
16980;DHT22;42288;52.182;21.156;2023-05-08T03:28:13;4.80;87.30
16980;DHT22;42288;52.182;21.156;2023-05-08T03:30:40;4.90;87.00
16980;DHT22;42288;52.182;21.156;2023-05-08T03:33:07;4.70;87.40
16980;DHT22;42288;52.182;21.156;2023-05-08T03:35:37;4.80;88.00
16980;DHT22;42288;52.182;21.156;2023-05-08T03:38:06;4.80;88.10
16980;DHT22;42288;52.182;21.156;2023-05-08T03:40:34;4.70;88.70
16980;DHT22;42288;52.182;21.156;2023-05-08T03:43:09;4.80;88.50
16980;DHT22;42288;52.182;21.156;2023-05-08T03:45:37;4.90;89.20
16980;DHT22;42288;52.182;21.156;2023-05-08T03:48:04;4.90;89.90
16980;DHT22;42288;52.182;21.156;2023-05-08T03:50:31;5.00;90.00
16980;DHT22;42288;52.182;21.156;2023-05-08T03:52:59;5.20;90.10
16980;DHT22;42288;52.182;21.156;2023-05-08T03:55:25;5.00;90.40
16980;DHT22;42288;52.182;21.156;2023-05-08T04:06:05;5.50;90.30
16980;DHT22;42288;52.182;21.156;2023-05-08T04:08:40;5.40;90.30
16980;DHT22;42288;52.182;21.156;2023-05-08T04:11:17;5.40;90.60
16980;DHT22;42288;52.182;21.156;2023-05-08T04:13:55;5.80;90.20
16980;DHT22;42288;52.182;21.156;2023-05-08T04:16:26;5.80;90.00
16980;DHT22;42288;52.182;21.156;2023-05-08T04:19:00;5.90;89.60
16980;DHT22;42288;52.182;21.156;2023-05-08T04:21:28;5.90;90.10
16980;DHT22;42288;52.182;21.156;2023-05-08T04:23:55;6.30;90.30
16980;DHT22;42288;52.182;21.156;2023-05-08T04:26:22;6.50;90.30
16980;DHT22;42288;52.182;21.156;2023-05-08T04:28:47;6.50;90.30
16980;DHT22;42288;52.182;21.156;2023-05-08T04:31:15;6.70;90.50
16980;DHT22;42288;52.182;21.156;2023-05-08T04:33:45;6.70;90.70
16980;DHT22;42288;52.182;21.156;2023-05-08T04:36:12;6.80;90.80
16980;DHT22;42288;52.182;21.156;2023-05-08T04:38:38;6.90;91.10
16980;DHT22;42288;52.182;21.156;2023-05-08T04:41:04;7.00;91.10
16980;DHT22;42288;52.182;21.156;2023-05-08T04:43:30;7.20;91.20
16980;DHT22;42288;52.182;21.156;2023-05-08T04:45:56;7.00;91.60
16980;DHT22;42288;52.182;21.156;2023-05-08T04:48:21;7.00;92.10
16980;DHT22;42288;52.182;21.156;2023-05-08T04:50:47;7.30;92.00
16980;DHT22;42288;52.182;21.156;2023-05-08T04:53:13;7.40;91.80
16980;DHT22;42288;52.182;21.156;2023-05-08T04:55:38;7.30;92.10
16980;DHT22;42288;52.182;21.156;2023-05-08T04:58:04;7.40;92.20
16980;DHT22;42288;52.182;21.156;2023-05-08T05:00:29;7.40;92.90
16980;DHT22;42288;52.182;21.156;2023-05-08T05:02:55;7.50;93.20
16980;DHT22;42288;52.182;21.156;2023-05-08T05:05:20;7.90;92.80
16980;DHT22;42288;52.182;21.156;2023-05-08T05:07:46;8.10;92.30
16980;DHT22;42288;52.182;21.156;2023-05-08T05:10:11;8.10;92.50
16980;DHT22;42288;52.182;21.156;2023-05-08T05:12:37;8.40;92.30
16980;DHT22;42288;52.182;21.156;2023-05-08T05:15:03;8.40;92.30
16980;DHT22;42288;52.182;21.156;2023-05-08T05:17:31;8.60;92.00
16980;DHT22;42288;52.182;21.156;2023-05-08T05:19:57;8.70;92.40
16980;DHT22;42288;52.182;21.156;2023-05-08T05:22:24;8.90;92.10
16980;DHT22;42288;52.182;21.156;2023-05-08T05:24:49;9.10;91.80
16980;DHT22;42288;52.182;21.156;2023-05-08T05:27:15;9.20;91.80
16980;DHT22;42288;52.182;21.156;2023-05-08T05:29:42;9.20;91.60
16980;DHT22;42288;52.182;21.156;2023-05-08T05:32:07;9.40;91.20
16980;DHT22;42288;52.182;21.156;2023-05-08T05:34:34;9.60;90.80
16980;DHT22;42288;52.182;21.156;2023-05-08T05:37:00;9.80;90.50
16980;DHT22;42288;52.182;21.156;2023-05-08T05:39:26;9.80;90.40
16980;DHT22;42288;52.182;21.156;2023-05-08T05:41:51;9.80;89.70
16980;DHT22;42288;52.182;21.156;2023-05-08T05:44:17;10.00;88.70
16980;DHT22;42288;52.182;21.156;2023-05-08T05:46:43;10.10;88.70
16980;DHT22;42288;52.182;21.156;2023-05-08T05:49:08;10.20;87.20
16980;DHT22;42288;52.182;21.156;2023-05-08T05:51:34;10.40;86.00
16980;DHT22;42288;52.182;21.156;2023-05-08T05:53:59;10.50;84.40
16980;DHT22;42288;52.182;21.156;2023-05-08T05:56:25;10.50;84.50
16980;DHT22;42288;52.182;21.156;2023-05-08T05:58:51;10.60;83.20
16980;DHT22;42288;52.182;21.156;2023-05-08T06:01:16;10.50;82.70
16980;DHT22;42288;52.182;21.156;2023-05-08T06:03:42;10.60;82.60
16980;DHT22;42288;52.182;21.156;2023-05-08T06:06:08;10.80;82.40
16980;DHT22;42288;52.182;21.156;2023-05-08T06:08:34;10.90;81.70
16980;DHT22;42288;52.182;21.156;2023-05-08T06:10:59;11.20;80.50
16980;DHT22;42288;52.182;21.156;2023-05-08T06:13:25;11.30;79.20
16980;DHT22;42288;52.182;21.156;2023-05-08T06:15:53;11.30;78.90
16980;DHT22;42288;52.182;21.156;2023-05-08T06:18:20;11.40;79.00
16980;DHT22;42288;52.182;21.156;2023-05-08T06:20:46;11.20;78.10
16980;DHT22;42288;52.182;21.156;2023-05-08T06:23:12;11.30;78.70
16980;DHT22;42288;52.182;21.156;2023-05-08T06:25:37;11.40;77.50
16980;DHT22;42288;52.182;21.156;2023-05-08T06:28:03;11.50;77.90
16980;DHT22;42288;52.182;21.156;2023-05-08T06:30:30;11.70;77.10
16980;DHT22;42288;52.182;21.156;2023-05-08T06:32:56;11.90;75.80
16980;DHT22;42288;52.182;21.156;2023-05-08T06:35:22;12.00;74.70
16980;DHT22;42288;52.182;21.156;2023-05-08T06:37:47;12.10;74.80
16980;DHT22;42288;52.182;21.156;2023-05-08T06:40:13;12.00;74.90
16980;DHT22;42288;52.182;21.156;2023-05-08T06:42:39;12.10;74.40
16980;DHT22;42288;52.182;21.156;2023-05-08T06:45:06;12.00;72.80
16980;DHT22;42288;52.182;21.156;2023-05-08T06:47:32;12.10;72.80
16980;DHT22;42288;52.182;21.156;2023-05-08T06:49:59;12.10;70.10
16980;DHT22;42288;52.182;21.156;2023-05-08T06:52:25;12.30;71.20
16980;DHT22;42288;52.182;21.156;2023-05-08T06:54:50;12.40;70.10
16980;DHT22;42288;52.182;21.156;2023-05-08T06:57:16;12.50;69.40
16980;DHT22;42288;52.182;21.156;2023-05-08T06:59:42;12.60;68.90
16980;DHT22;42288;52.182;21.156;2023-05-08T07:02:07;12.50;67.80
16980;DHT22;42288;52.182;21.156;2023-05-08T07:04:34;12.60;68.40
16980;DHT22;42288;52.182;21.156;2023-05-08T07:07:00;12.50;67.50
16980;DHT22;42288;52.182;21.156;2023-05-08T07:09:26;12.80;70.20
16980;DHT22;42288;52.182;21.156;2023-05-08T07:11:52;13.00;69.40
16980;DHT22;42288;52.182;21.156;2023-05-08T07:14:17;13.20;69.00
16980;DHT22;42288;52.182;21.156;2023-05-08T07:16:43;13.30;67.30
16980;DHT22;42288;52.182;21.156;2023-05-08T07:19:09;13.40;67.60
16980;DHT22;42288;52.182;21.156;2023-05-08T07:21:34;13.40;67.20
16980;DHT22;42288;52.182;21.156;2023-05-08T07:24:00;13.30;64.40
16980;DHT22;42288;52.182;21.156;2023-05-08T07:26:26;13.10;65.80
16980;DHT22;42288;52.182;21.156;2023-05-08T07:28:51;13.10;64.70
16980;DHT22;42288;52.182;21.156;2023-05-08T07:31:18;13.20;64.80
16980;DHT22;42288;52.182;21.156;2023-05-08T07:33:44;13.40;64.10
16980;DHT22;42288;52.182;21.156;2023-05-08T07:36:11;13.50;64.60
16980;DHT22;42288;52.182;21.156;2023-05-08T07:38:37;13.50;63.70
16980;DHT22;42288;52.182;21.156;2023-05-08T07:41:02;13.40;64.90
16980;DHT22;42288;52.182;21.156;2023-05-08T07:43:30;13.40;63.50
16980;DHT22;42288;52.182;21.156;2023-05-08T07:45:56;13.20;62.80
16980;DHT22;42288;52.182;21.156;2023-05-08T07:48:21;13.50;65.60
16980;DHT22;42288;52.182;21.156;2023-05-08T07:50:51;13.70;65.00
16980;DHT22;42288;52.182;21.156;2023-05-08T07:53:16;13.80;62.80
16980;DHT22;42288;52.182;21.156;2023-05-08T07:55:42;14.00;62.90
16980;DHT22;42288;52.182;21.156;2023-05-08T07:58:08;14.00;64.00
16980;DHT22;42288;52.182;21.156;2023-05-08T08:00:34;13.80;59.70
16980;DHT22;42288;52.182;21.156;2023-05-08T08:03:01;14.00;60.60
16980;DHT22;42288;52.182;21.156;2023-05-08T08:05:26;13.70;59.60
16980;DHT22;42288;52.182;21.156;2023-05-08T08:07:52;13.60;60.00
16980;DHT22;42288;52.182;21.156;2023-05-08T08:10:18;13.70;62.30
16980;DHT22;42288;52.182;21.156;2023-05-08T08:12:44;14.00;61.30
16980;DHT22;42288;52.182;21.156;2023-05-08T08:15:10;14.30;61.20
16980;DHT22;42288;52.182;21.156;2023-05-08T08:17:35;14.60;60.30
16980;DHT22;42288;52.182;21.156;2023-05-08T08:20:02;14.60;59.10
16980;DHT22;42288;52.182;21.156;2023-05-08T08:22:28;14.70;58.50
16980;DHT22;42288;52.182;21.156;2023-05-08T08:24:54;14.90;58.60
16980;DHT22;42288;52.182;21.156;2023-05-08T08:27:20;14.80;59.30
16980;DHT22;42288;52.182;21.156;2023-05-08T08:29:46;15.00;57.80
16980;DHT22;42288;52.182;21.156;2023-05-08T08:32:11;15.20;57.70
16980;DHT22;42288;52.182;21.156;2023-05-08T08:34:37;14.90;56.60
16980;DHT22;42288;52.182;21.156;2023-05-08T08:37:04;15.20;57.60
16980;DHT22;42288;52.182;21.156;2023-05-08T08:39:33;15.40;57.70
16980;DHT22;42288;52.182;21.156;2023-05-08T08:42:00;15.60;57.50
16980;DHT22;42288;52.182;21.156;2023-05-08T08:44:26;15.50;58.00
16980;DHT22;42288;52.182;21.156;2023-05-08T08:46:52;15.80;58.70
16980;DHT22;42288;52.182;21.156;2023-05-08T08:49:26;15.90;58.60
16980;DHT22;42288;52.182;21.156;2023-05-08T08:52:01;16.20;56.80
16980;DHT22;42288;52.182;21.156;2023-05-08T08:54:29;16.00;55.00
16980;DHT22;42288;52.182;21.156;2023-05-08T08:57:00;16.10;54.60
16980;DHT22;42288;52.182;21.156;2023-05-08T08:59:30;16.20;55.10
16980;DHT22;42288;52.182;21.156;2023-05-08T09:02:00;15.80;51.10
16980;DHT22;42288;52.182;21.156;2023-05-08T09:04:29;16.10;54.00
16980;DHT22;42288;52.182;21.156;2023-05-08T09:06:56;16.30;52.20
16980;DHT22;42288;52.182;21.156;2023-05-08T09:09:23;16.60;53.70
16980;DHT22;42288;52.182;21.156;2023-05-08T09:11:51;16.60;51.60
16980;DHT22;42288;52.182;21.156;2023-05-08T09:14:16;16.40;50.70
16980;DHT22;42288;52.182;21.156;2023-05-08T09:16:42;16.50;52.00
16980;DHT22;42288;52.182;21.156;2023-05-08T09:19:08;16.80;50.60
16980;DHT22;42288;52.182;21.156;2023-05-08T09:21:34;17.20;48.70
16980;DHT22;42288;52.182;21.156;2023-05-08T09:24:01;17.40;48.40
16980;DHT22;42288;52.182;21.156;2023-05-08T09:26:37;17.20;47.90
16980;DHT22;42288;52.182;21.156;2023-05-08T09:29:15;17.20;48.90
16980;DHT22;42288;52.182;21.156;2023-05-08T09:31:46;17.50;49.10
16980;DHT22;42288;52.182;21.156;2023-05-08T09:34:29;17.50;48.30
16980;DHT22;42288;52.182;21.156;2023-05-08T09:36:55;17.50;49.50
16980;DHT22;42288;52.182;21.156;2023-05-08T09:39:23;17.50;49.60
16980;DHT22;42288;52.182;21.156;2023-05-08T09:41:57;17.70;49.80
16980;DHT22;42288;52.182;21.156;2023-05-08T09:44:23;17.80;50.50
16980;DHT22;42288;52.182;21.156;2023-05-08T09:46:48;17.80;50.10
16980;DHT22;42288;52.182;21.156;2023-05-08T09:49:18;17.90;49.50
16980;DHT22;42288;52.182;21.156;2023-05-08T09:52:02;17.80;49.60
16980;DHT22;42288;52.182;21.156;2023-05-08T09:54:27;18.00;50.00
16980;DHT22;42288;52.182;21.156;2023-05-08T09:56:53;18.00;48.30
16980;DHT22;42288;52.182;21.156;2023-05-08T09:59:27;18.10;48.70
16980;DHT22;42288;52.182;21.156;2023-05-08T10:01:54;18.40;48.20
16980;DHT22;42288;52.182;21.156;2023-05-08T10:04:33;18.80;48.70
16980;DHT22;42288;52.182;21.156;2023-05-08T10:06:59;19.00;48.80
16980;DHT22;42288;52.182;21.156;2023-05-08T10:09:25;18.80;46.20
16980;DHT22;42288;52.182;21.156;2023-05-08T10:11:52;19.30;45.10
16980;DHT22;42288;52.182;21.156;2023-05-08T10:14:22;18.30;45.80
16980;DHT22;42288;52.182;21.156;2023-05-08T10:16:49;18.70;47.00
16980;DHT22;42288;52.182;21.156;2023-05-08T10:19:18;18.70;46.40
16980;DHT22;42288;52.182;21.156;2023-05-08T10:21:52;19.10;45.70
16980;DHT22;42288;52.182;21.156;2023-05-08T10:24:25;19.00;46.50
16980;DHT22;42288;52.182;21.156;2023-05-08T10:27:12;18.90;46.10
16980;DHT22;42288;52.182;21.156;2023-05-08T10:29:50;19.10;45.70
16980;DHT22;42288;52.182;21.156;2023-05-08T10:32:19;19.10;45.40
16980;DHT22;42288;52.182;21.156;2023-05-08T10:34:48;19.20;45.40
16980;DHT22;42288;52.182;21.156;2023-05-08T10:37:15;19.40;45.00
16980;DHT22;42288;52.182;21.156;2023-05-08T10:39:41;19.10;44.30
16980;DHT22;42288;52.182;21.156;2023-05-08T10:42:08;19.00;45.00
16980;DHT22;42288;52.182;21.156;2023-05-08T10:44:34;19.10;46.50
16980;DHT22;42288;52.182;21.156;2023-05-08T10:49:48;19.30;44.60
16980;DHT22;42288;52.182;21.156;2023-05-08T10:55:25;22.10;42.30
16980;DHT22;42288;52.182;21.156;2023-05-08T10:58:06;21.70;42.00
16980;DHT22;42288;52.182;21.156;2023-05-08T11:03:27;20.30;43.00
16980;DHT22;42288;52.182;21.156;2023-05-08T11:05:54;20.00;43.60
16980;DHT22;42288;52.182;21.156;2023-05-08T11:08:28;20.70;44.90
16980;DHT22;42288;52.182;21.156;2023-05-08T11:15:58;27.00;34.90
16980;DHT22;42288;52.182;21.156;2023-05-08T11:18:24;29.90;34.50
16980;DHT22;42288;52.182;21.156;2023-05-08T11:21:01;31.10;29.70
16980;DHT22;42288;52.182;21.156;2023-05-08T11:23:32;32.80;28.50
16980;DHT22;42288;52.182;21.156;2023-05-08T11:26:11;32.50;28.40
16980;DHT22;42288;52.182;21.156;2023-05-08T11:31:18;33.80;26.70
16980;DHT22;42288;52.182;21.156;2023-05-08T11:33:45;33.80;26.70
16980;DHT22;42288;52.182;21.156;2023-05-08T11:36:16;33.70;26.20
16980;DHT22;42288;52.182;21.156;2023-05-08T11:38:42;35.60;25.40
16980;DHT22;42288;52.182;21.156;2023-05-08T11:41:23;34.70;25.90
16980;DHT22;42288;52.182;21.156;2023-05-08T11:46:49;34.90;24.30
16980;DHT22;42288;52.182;21.156;2023-05-08T11:49:17;33.30;24.40
16980;DHT22;42288;52.182;21.156;2023-05-08T11:51:48;31.30;25.70
16980;DHT22;42288;52.182;21.156;2023-05-08T11:54:18;30.50;26.60
16980;DHT22;42288;52.182;21.156;2023-05-08T11:56:48;29.10;27.10
16980;DHT22;42288;52.182;21.156;2023-05-08T11:59:14;28.70;27.80
16980;DHT22;42288;52.182;21.156;2023-05-08T12:01:40;28.20;28.00
16980;DHT22;42288;52.182;21.156;2023-05-08T12:04:08;27.50;29.10
16980;DHT22;42288;52.182;21.156;2023-05-08T12:06:35;28.10;28.00
16980;DHT22;42288;52.182;21.156;2023-05-08T12:09:08;27.20;29.20
16980;DHT22;42288;52.182;21.156;2023-05-08T12:11:34;27.30;29.80
16980;DHT22;42288;52.182;21.156;2023-05-08T12:14:00;26.80;29.60
16980;DHT22;42288;52.182;21.156;2023-05-08T12:16:25;26.20;29.90
16980;DHT22;42288;52.182;21.156;2023-05-08T12:18:52;26.50;30.50
16980;DHT22;42288;52.182;21.156;2023-05-08T12:21:20;25.50;30.50
16980;DHT22;42288;52.182;21.156;2023-05-08T12:23:46;25.50;32.50
16980;DHT22;42288;52.182;21.156;2023-05-08T12:26:12;26.80;31.10
16980;DHT22;42288;52.182;21.156;2023-05-08T12:28:38;28.20;29.70
16980;DHT22;42288;52.182;21.156;2023-05-08T12:31:05;25.40;29.30
16980;DHT22;42288;52.182;21.156;2023-05-08T12:33:32;25.50;31.70
16980;DHT22;42288;52.182;21.156;2023-05-08T12:35:58;25.10;30.30
16980;DHT22;42288;52.182;21.156;2023-05-08T12:38:25;25.20;31.90
16980;DHT22;42288;52.182;21.156;2023-05-08T12:40:51;25.40;31.90
16980;DHT22;42288;52.182;21.156;2023-05-08T12:43:19;25.60;32.40
16980;DHT22;42288;52.182;21.156;2023-05-08T12:45:45;26.20;30.20
16980;DHT22;42288;52.182;21.156;2023-05-08T12:48:12;25.50;30.40
16980;DHT22;42288;52.182;21.156;2023-05-08T12:50:42;24.10;31.10
16980;DHT22;42288;52.182;21.156;2023-05-08T12:53:14;23.70;30.60
16980;DHT22;42288;52.182;21.156;2023-05-08T12:55:53;23.20;32.70
16980;DHT22;42288;52.182;21.156;2023-05-08T12:58:23;23.10;34.10
16980;DHT22;42288;52.182;21.156;2023-05-08T13:00:50;23.00;34.20
16980;DHT22;42288;52.182;21.156;2023-05-08T13:03:27;22.70;35.10
16980;DHT22;42288;52.182;21.156;2023-05-08T13:05:54;21.90;34.10
16980;DHT22;42288;52.182;21.156;2023-05-08T13:08:34;20.70;35.00
16980;DHT22;42288;52.182;21.156;2023-05-08T13:11:02;20.70;37.00
16980;DHT22;42288;52.182;21.156;2023-05-08T13:13:30;20.50;36.00
16980;DHT22;42288;52.182;21.156;2023-05-08T13:15:56;21.20;36.30
16980;DHT22;42288;52.182;21.156;2023-05-08T13:18:25;20.80;35.30
16980;DHT22;42288;52.182;21.156;2023-05-08T13:20:55;20.30;35.20
16980;DHT22;42288;52.182;21.156;2023-05-08T13:23:21;20.60;35.50
16980;DHT22;42288;52.182;21.156;2023-05-08T13:25:47;22.10;35.40
16980;DHT22;42288;52.182;21.156;2023-05-08T13:28:12;22.80;35.10
16980;DHT22;42288;52.182;21.156;2023-05-08T13:30:38;22.70;34.10
16980;DHT22;42288;52.182;21.156;2023-05-08T13:33:04;23.50;33.90
16980;DHT22;42288;52.182;21.156;2023-05-08T13:35:30;23.10;33.50
16980;DHT22;42288;52.182;21.156;2023-05-08T13:37:57;25.60;33.90
16980;DHT22;42288;52.182;21.156;2023-05-08T13:40:24;28.00;30.80
16980;DHT22;42288;52.182;21.156;2023-05-08T13:42:50;28.60;28.80
16980;DHT22;42288;52.182;21.156;2023-05-08T13:45:15;28.40;28.80
16980;DHT22;42288;52.182;21.156;2023-05-08T13:47:46;29.40;28.30
16980;DHT22;42288;52.182;21.156;2023-05-08T13:50:13;30.00;27.70
16980;DHT22;42288;52.182;21.156;2023-05-08T13:52:41;32.00;27.40
16980;DHT22;42288;52.182;21.156;2023-05-08T13:55:11;32.50;25.00
16980;DHT22;42288;52.182;21.156;2023-05-08T13:57:37;31.40;26.10
16980;DHT22;42288;52.182;21.156;2023-05-08T14:00:04;31.50;24.60
16980;DHT22;42288;52.182;21.156;2023-05-08T14:02:30;31.30;25.90
16980;DHT22;42288;52.182;21.156;2023-05-08T14:04:56;30.50;26.10
16980;DHT22;42288;52.182;21.156;2023-05-08T14:07:22;31.50;26.10
16980;DHT22;42288;52.182;21.156;2023-05-08T14:09:47;30.60;25.80
16980;DHT22;42288;52.182;21.156;2023-05-08T14:12:13;30.80;27.20
16980;DHT22;42288;52.182;21.156;2023-05-08T14:14:39;31.10;26.00
16980;DHT22;42288;52.182;21.156;2023-05-08T14:17:05;31.80;25.50
16980;DHT22;42288;52.182;21.156;2023-05-08T14:19:31;31.60;24.60
16980;DHT22;42288;52.182;21.156;2023-05-08T14:21:57;30.20;25.70
16980;DHT22;42288;52.182;21.156;2023-05-08T14:24:22;30.50;27.40
16980;DHT22;42288;52.182;21.156;2023-05-08T14:26:48;30.40;27.40
16980;DHT22;42288;52.182;21.156;2023-05-08T14:29:14;29.80;26.80
16980;DHT22;42288;52.182;21.156;2023-05-08T14:31:40;29.50;27.10
16980;DHT22;42288;52.182;21.156;2023-05-08T14:34:06;29.60;26.50
16980;DHT22;42288;52.182;21.156;2023-05-08T14:36:32;29.00;27.80
16980;DHT22;42288;52.182;21.156;2023-05-08T14:38:57;29.40;28.20
16980;DHT22;42288;52.182;21.156;2023-05-08T14:41:27;24.80;30.10
16980;DHT22;42288;52.182;21.156;2023-05-08T14:43:53;23.10;33.10
16980;DHT22;42288;52.182;21.156;2023-05-08T14:46:18;21.40;33.40
16980;DHT22;42288;52.182;21.156;2023-05-08T14:48:44;20.50;36.40
16980;DHT22;42288;52.182;21.156;2023-05-08T14:51:09;18.80;36.00
16980;DHT22;42288;52.182;21.156;2023-05-08T14:53:36;18.50;38.10
16980;DHT22;42288;52.182;21.156;2023-05-08T14:56:02;18.50;39.90
16980;DHT22;42288;52.182;21.156;2023-05-08T14:58:28;18.00;39.20
16980;DHT22;42288;52.182;21.156;2023-05-08T15:00:53;18.00;38.10
16980;DHT22;42288;52.182;21.156;2023-05-08T15:03:19;17.60;39.40
16980;DHT22;42288;52.182;21.156;2023-05-08T15:05:45;17.40;39.30
16980;DHT22;42288;52.182;21.156;2023-05-08T15:08:12;17.10;41.30
16980;DHT22;42288;52.182;21.156;2023-05-08T15:10:37;17.70;43.20
16980;DHT22;42288;52.182;21.156;2023-05-08T15:13:03;18.10;42.70
16980;DHT22;42288;52.182;21.156;2023-05-08T15:15:29;17.80;41.30
16980;DHT22;42288;52.182;21.156;2023-05-08T15:17:54;18.10;42.90
16980;DHT22;42288;52.182;21.156;2023-05-08T15:20:20;18.10;41.80
16980;DHT22;42288;52.182;21.156;2023-05-08T15:22:45;17.30;39.90
16980;DHT22;42288;52.182;21.156;2023-05-08T15:25:11;16.90;41.10
16980;DHT22;42288;52.182;21.156;2023-05-08T15:27:37;16.90;42.60
16980;DHT22;42288;52.182;21.156;2023-05-08T15:30:03;16.50;42.70
16980;DHT22;42288;52.182;21.156;2023-05-08T15:32:29;16.00;43.20
16980;DHT22;42288;52.182;21.156;2023-05-08T15:34:54;16.20;44.50
16980;DHT22;42288;52.182;21.156;2023-05-08T15:37:20;15.90;43.50
16980;DHT22;42288;52.182;21.156;2023-05-08T15:39:46;15.70;43.50
16980;DHT22;42288;52.182;21.156;2023-05-08T15:42:11;16.20;43.40
16980;DHT22;42288;52.182;21.156;2023-05-08T15:44:37;16.80;42.60
16980;DHT22;42288;52.182;21.156;2023-05-08T15:47:02;16.70;43.30
16980;DHT22;42288;52.182;21.156;2023-05-08T15:49:28;17.30;41.90
16980;DHT22;42288;52.182;21.156;2023-05-08T15:51:54;17.60;40.80
16980;DHT22;42288;52.182;21.156;2023-05-08T15:54:20;17.90;42.00
16980;DHT22;42288;52.182;21.156;2023-05-08T15:56:46;17.50;42.20
16980;DHT22;42288;52.182;21.156;2023-05-08T15:59:11;17.20;42.10
16980;DHT22;42288;52.182;21.156;2023-05-08T16:01:37;17.30;41.60
16980;DHT22;42288;52.182;21.156;2023-05-08T16:04:05;17.80;41.90
16980;DHT22;42288;52.182;21.156;2023-05-08T16:06:30;17.50;41.40
16980;DHT22;42288;52.182;21.156;2023-05-08T16:08:56;17.70;41.20